createdAt,value
2019-01-31T00:01:40.374Z,36.5
2019-01-31T00:07:12.845Z,38.700001
2019-01-31T00:12:35.592Z,38.299999
2019-01-31T00:17:58.557Z,39
2019-01-31T00:23:21.416Z,39.599998
2019-01-31T00:28:53.123Z,39.700001
2019-01-31T00:34:16.853Z,39
2019-01-31T00:39:51.131Z,41.099998
2019-01-31T00:45:16.438Z,39.700001
2019-01-31T00:50:48.772Z,40.700001
2019-01-31T00:56:11.507Z,40
2019-01-31T01:01:34.200Z,40.799999
2019-01-31T01:06:57.372Z,39.400002
2019-01-31T01:12:20.264Z,38.900002
2019-01-31T01:17:43.101Z,39.5
2019-01-31T01:23:05.865Z,39.200001
2019-01-31T01:28:28.811Z,39
2019-01-31T01:34:02.352Z,38.299999
2019-01-31T01:39:25.150Z,36.5
2019-01-31T01:44:48.125Z,37.299999
2019-01-31T01:50:10.865Z,36.599998
2019-01-31T01:55:33.966Z,34.700001
2019-01-31T02:00:56.887Z,35
2019-01-31T02:06:19.546Z,35.5
2019-01-31T02:11:52.468Z,32.299999
2019-01-31T02:17:16.200Z,34.700001
2019-01-31T02:22:39.059Z,34.299999
2019-01-31T02:28:11.166Z,35.700001
2019-01-31T02:33:44.887Z,34
2019-01-31T02:39:16.869Z,35.5
2019-01-31T02:44:39.534Z,34.700001
2019-01-31T02:50:12.879Z,33.400002
2019-01-31T02:55:35.623Z,31.6
2019-01-31T03:00:58.309Z,29.4
2019-01-31T03:06:21.297Z,30.299999
2019-01-31T03:11:44.158Z,29.6
2019-01-31T03:17:06.846Z,29.6
2019-01-31T03:22:30.095Z,29.4
2019-01-31T03:27:53.131Z,30.299999
2019-01-31T03:33:15.965Z,30.700001
2019-01-31T03:38:38.660Z,30.9
2019-01-31T03:44:01.875Z,31.200001
2019-01-31T03:49:35.793Z,32.099998
2019-01-31T03:54:59.245Z,32.799999
2019-01-31T04:00:22.277Z,33.5
2019-01-31T04:05:54.646Z,32.299999
2019-01-31T04:11:18.579Z,34
2019-01-31T04:16:41.291Z,34
2019-01-31T04:22:04.129Z,35
2019-01-31T04:27:26.900Z,34.299999
2019-01-31T04:32:49.725Z,35.5
2019-01-31T04:38:12.557Z,34.400002
2019-01-31T04:43:35.318Z,34.299999
2019-01-31T04:48:58.160Z,34.599998
2019-01-31T04:54:21.418Z,34.799999
2019-01-31T04:59:44.191Z,34.900002
2019-01-31T05:05:07.045Z,34.400002
2019-01-31T05:10:29.972Z,34.799999
2019-01-31T05:16:03.875Z,31.799999
2019-01-31T05:21:26.700Z,32.099998
2019-01-31T05:26:49.547Z,33.400002
2019-01-31T05:32:41.738Z,34.299999
2019-01-31T05:38:04.771Z,32.099998
2019-01-31T05:43:27.753Z,31.200001
2019-01-31T05:48:50.859Z,32.099998
2019-01-31T05:54:14.329Z,33.299999
2019-01-31T05:59:47.244Z,32.299999
2019-01-31T06:05:20.846Z,32.599998
2019-01-31T06:10:53.388Z,32.299999
2019-01-31T06:16:24.864Z,30
2019-01-31T06:21:48.112Z,31.5
2019-01-31T06:27:11.061Z,28.9
2019-01-31T06:32:33.757Z,27.5
2019-01-31T06:38:05.950Z,26.9
2019-01-31T06:43:39.269Z,25.299999
2019-01-31T06:49:12.142Z,26.6
2019-01-31T06:54:47.721Z,27.799999
2019-01-31T07:00:10.446Z,27.9
2019-01-31T07:05:43.344Z,26.5
2019-01-31T07:11:17.319Z,27.700001
2019-01-31T07:16:49.832Z,27.799999
2019-01-31T07:22:13.207Z,28.799999
2019-01-31T07:27:35.974Z,31
2019-01-31T07:33:10.359Z,27.299999
2019-01-31T07:38:42.461Z,29.5
2019-01-31T07:44:05.143Z,25.200001
2019-01-31T07:49:36.829Z,27.700001
2019-01-31T07:55:01.921Z,28.200001
2019-01-31T08:00:24.304Z,29.1
2019-01-31T08:05:55.129Z,26.9
2019-01-31T08:11:17.939Z,29.1
2019-01-31T08:16:51.564Z,27.299999
2019-01-31T08:22:14.266Z,27.9
2019-01-31T08:27:47.089Z,26.5
2019-01-31T08:33:18.669Z,23.9
2019-01-31T08:38:51.052Z,23.700001
2019-01-31T08:44:22.803Z,24.1
2019-01-31T08:49:46.056Z,20.9
2019-01-31T08:55:17.497Z,20
2019-01-31T09:00:40.336Z,18.299999
2019-01-31T09:06:15.018Z,17.200001
2019-01-31T09:11:36.974Z,16.1
2019-01-31T09:17:10.311Z,16.4
2019-01-31T09:22:43.945Z,15.6
2019-01-31T09:28:18.413Z,14.7
2019-01-31T09:33:51.515Z,15
2019-01-31T09:39:14.961Z,14
2019-01-31T09:44:47.730Z,14.2
2019-01-31T09:50:11.031Z,13.9
2019-01-31T09:55:42.944Z,13.8
2019-01-31T10:01:05.941Z,13.8
2019-01-31T10:06:39.608Z,13.6
2019-01-31T10:12:11.713Z,13.3
2019-01-31T10:17:35.142Z,12.7
2019-01-31T10:23:08.391Z,13.5
2019-01-31T10:28:31.477Z,13.5
2019-01-31T10:33:54.428Z,12.2
2019-01-31T10:39:17.117Z,10.7
2019-01-31T10:44:39.860Z,11.6
2019-01-31T10:50:02.561Z,12.3
2019-01-31T10:55:35.519Z,12.1
2019-01-31T11:00:58.211Z,13.3
2019-01-31T11:06:21.120Z,12.4
2019-01-31T11:11:43.862Z,12.7
2019-01-31T11:17:06.807Z,11.8
2019-01-31T11:22:29.854Z,13.1
2019-01-31T11:27:52.589Z,12.5
2019-01-31T11:33:15.273Z,13.8
2019-01-31T11:38:37.925Z,14.2
2019-01-31T11:44:00.889Z,13.2
2019-01-31T11:49:23.956Z,12.4
2019-01-31T11:54:46.627Z,12.9
2019-01-31T12:00:09.342Z,12.9
2019-01-31T12:05:32.033Z,11.5
2019-01-31T12:10:55.116Z,10.8
2019-01-31T12:16:17.876Z,10.7
2019-01-31T12:21:40.810Z,9.7
2019-01-31T12:27:03.755Z,10
2019-01-31T12:32:26.409Z,9.6
2019-01-31T12:37:49.265Z,10.3
2019-01-31T12:43:11.900Z,9.7
2019-01-31T12:48:34.640Z,9.5
2019-01-31T12:53:57.672Z,8.8
2019-01-31T12:59:20.345Z,8.9
2019-01-31T13:04:43.047Z,9.4
2019-01-31T13:10:05.886Z,8.9
2019-01-31T13:15:29.418Z,9.6
2019-01-31T13:20:52.247Z,8.7
2019-01-31T13:26:15.845Z,7.5
2019-01-31T13:31:38.516Z,8.3
2019-01-31T13:37:01.317Z,7.9
2019-01-31T13:42:24.090Z,9.3
2019-01-31T13:47:47.047Z,9.9
2019-01-31T13:53:09.828Z,9.1
2019-01-31T13:58:32.577Z,9.6
2019-01-31T14:03:55.246Z,12.8
2019-01-31T14:09:17.918Z,11.4
2019-01-31T14:14:40.604Z,12
2019-01-31T14:20:04.035Z,12.4
2019-01-31T14:25:27.082Z,11.1
2019-01-31T14:30:49.783Z,11.8
2019-01-31T14:36:12.520Z,13
2019-01-31T14:41:36.080Z,13.3
2019-01-31T14:46:58.989Z,13.6
2019-01-31T14:52:21.654Z,14
2019-01-31T14:57:44.349Z,17.700001
2019-01-31T15:03:07.038Z,14.9
2019-01-31T15:08:30.210Z,14.9
2019-01-31T15:13:53.233Z,13.7
2019-01-31T15:19:15.955Z,12.5
2019-01-31T15:24:38.693Z,18.9
2019-01-31T15:30:02.822Z,17.799999
2019-01-31T15:35:26.133Z,15.7
2019-01-31T15:40:49.008Z,14.1
2019-01-31T15:46:11.703Z,10.4
2019-01-31T15:51:34.741Z,10.8
2019-01-31T15:56:57.504Z,11.5
2019-01-31T16:02:20.267Z,11.1
2019-01-31T16:07:42.986Z,10.9
2019-01-31T16:13:05.728Z,11
2019-01-31T16:18:28.417Z,7.9
2019-01-31T16:23:51.078Z,7.9
2019-01-31T16:29:14.802Z,8.6
2019-01-31T16:34:38.383Z,8
2019-01-31T16:40:01.042Z,8.1
2019-01-31T16:45:23.777Z,8.4
2019-01-31T16:50:46.451Z,7.7
2019-01-31T16:56:09.270Z,8.6
2019-01-31T17:01:32.250Z,8
2019-01-31T17:06:55.121Z,8
2019-01-31T17:12:17.980Z,9.2
2019-01-31T17:17:41.556Z,8.2
2019-01-31T17:23:04.219Z,9.1
2019-01-31T17:28:26.900Z,8.7
2019-01-31T17:33:50.880Z,8.8
2019-01-31T17:39:13.669Z,8.8
2019-01-31T17:44:36.943Z,8.9
2019-01-31T17:49:59.647Z,8.9
2019-01-31T17:55:22.408Z,8
2019-01-31T18:00:45.183Z,7.6
2019-01-31T18:06:07.738Z,8.3
2019-01-31T18:11:30.412Z,7.8
2019-01-31T18:16:53.284Z,8
2019-01-31T18:22:15.968Z,7
2019-01-31T18:27:38.686Z,7.6
2019-01-31T18:33:02.365Z,8.1
2019-01-31T18:38:25.054Z,9.2
2019-01-31T18:43:48.492Z,8.1
2019-01-31T18:49:11.397Z,8.2
2019-01-31T18:54:34.101Z,8.9
2019-01-31T18:59:56.832Z,8.6
2019-01-31T19:05:19.654Z,8.1
2019-01-31T19:10:43.714Z,7.5
2019-01-31T19:16:06.014Z,8.1
2019-01-31T19:21:28.776Z,7.8
2019-01-31T19:26:51.500Z,7.3
2019-01-31T19:32:14.315Z,6.8
2019-01-31T19:37:37.543Z,9
2019-01-31T19:43:00.305Z,12.7
2019-01-31T19:48:23.051Z,8.7
2019-01-31T19:53:48.354Z,8.2
2019-01-31T19:59:10.461Z,11.4
2019-01-31T20:04:34.803Z,8.1
2019-01-31T20:09:57.031Z,8.9
2019-01-31T20:15:20.109Z,8.7
2019-01-31T20:20:43.600Z,9.9
2019-01-31T20:26:06.280Z,7.8
2019-01-31T20:31:29.093Z,7.8
2019-01-31T20:36:51.844Z,6.5
2019-01-31T20:42:14.832Z,8
2019-01-31T20:47:37.749Z,7.7
2019-01-31T20:53:00.530Z,7.6
2019-01-31T20:58:23.265Z,8.7
2019-01-31T21:03:46.256Z,7.8
2019-01-31T21:09:09.042Z,7.7
2019-01-31T21:14:32.069Z,8.8
2019-01-31T21:19:54.732Z,8.9
2019-01-31T21:25:17.431Z,9.1
2019-01-31T21:30:41.166Z,11
2019-01-31T21:36:04.466Z,11.5
2019-01-31T21:41:27.157Z,14.7
2019-01-31T21:46:50.170Z,9.3
2019-01-31T21:52:12.915Z,13.2
2019-01-31T21:57:35.624Z,9.5
2019-01-31T22:02:58.245Z,8.6
2019-01-31T22:08:21.720Z,10.5
2019-01-31T22:13:44.618Z,11.6
2019-01-31T22:19:07.263Z,11.2
2019-01-31T22:24:29.960Z,9.6
2019-01-31T22:29:52.671Z,9.7
2019-01-31T22:35:15.326Z,10.2
2019-01-31T22:40:38.994Z,7.6
2019-01-31T22:46:01.658Z,8.4
2019-01-31T22:51:24.609Z,9.2
2019-01-31T22:56:47.282Z,8.6
2019-01-31T23:02:09.964Z,8.8
2019-01-31T23:07:32.646Z,8.6
2019-01-31T23:12:55.560Z,9.4
2019-01-31T23:18:18.471Z,9.2
2019-01-31T23:23:41.075Z,8.6
2019-01-31T23:29:03.687Z,8.5
2019-01-31T23:34:26.530Z,8.6
2019-01-31T23:39:49.171Z,8.4
2019-01-31T23:45:11.949Z,8.2
2019-01-31T23:50:34.678Z,7.6
2019-01-31T23:55:57.338Z,7.3
